createdAt,value
2019-02-06T00:01:45.424Z,4.10
2019-02-06T00:03:12.669Z,3.80
2019-02-06T00:04:38.161Z,3.75
2019-02-06T00:06:03.789Z,3.67
2019-02-06T00:07:29.432Z,4.40
2019-02-06T00:08:55.188Z,3.87
2019-02-06T00:10:20.633Z,4.30
2019-02-06T00:11:46.221Z,3.83
2019-02-06T00:13:11.955Z,4.30
2019-02-06T00:14:37.635Z,3.70
2019-02-06T00:16:03.351Z,3.30
2019-02-06T00:17:29.017Z,3.95
2019-02-06T00:18:54.673Z,3.98
2019-02-06T00:20:20.287Z,3.40
2019-02-06T00:21:45.978Z,3.90
2019-02-06T00:23:11.604Z,3.33
2019-02-06T00:24:37.144Z,2.70
2019-02-06T00:26:02.751Z,3.15
2019-02-06T00:27:28.736Z,3.12
2019-02-06T00:28:54.246Z,3.30
2019-02-06T00:30:21.646Z,4.10
2019-02-06T00:31:47.092Z,4.00
2019-02-06T00:33:12.918Z,3.35
2019-02-06T00:34:38.441Z,2.80
2019-02-06T00:36:04.133Z,3.20
2019-02-06T00:37:29.624Z,3.17
2019-02-06T00:38:56.658Z,3.20
2019-02-06T00:40:22.355Z,3.50
2019-02-06T00:41:47.829Z,2.12
2019-02-06T00:43:13.677Z,2.98
2019-02-06T00:44:39.663Z,2.60
2019-02-06T00:46:05.371Z,2.92
2019-02-06T00:47:30.850Z,3.00
2019-02-06T00:48:56.382Z,2.95
2019-02-06T00:50:21.857Z,2.65
2019-02-06T00:51:47.404Z,2.67
2019-02-06T00:53:12.967Z,3.33
2019-02-06T00:54:38.456Z,2.70
2019-02-06T00:56:03.980Z,3.15
2019-02-06T00:57:29.446Z,2.70
2019-02-06T00:58:55.068Z,2.12
2019-02-06T01:00:22.764Z,2.30
2019-02-06T01:01:48.469Z,2.40
2019-02-06T01:03:14.120Z,2.62
2019-02-06T01:04:39.768Z,2.58
2019-02-06T01:06:05.609Z,2.42
2019-02-06T01:07:31.210Z,2.92
2019-02-06T01:08:56.787Z,2.65
2019-02-06T01:10:22.645Z,2.45
2019-02-06T01:11:48.192Z,2.10
2019-02-06T01:13:13.773Z,2.08
2019-02-06T01:14:39.722Z,2.33
2019-02-06T01:16:05.375Z,2.67
2019-02-06T01:17:30.956Z,2.30
2019-02-06T01:18:56.481Z,1.80
2019-02-06T01:20:22.525Z,2.35
2019-02-06T01:21:47.976Z,2.40
2019-02-06T01:23:16.252Z,2.08
2019-02-06T01:24:40.814Z,2.22
2019-02-06T01:26:06.784Z,2.25
2019-02-06T01:27:32.270Z,2.40
2019-02-06T01:28:57.795Z,2.70
2019-02-06T01:30:24.911Z,3.35
2019-02-06T01:31:50.509Z,2.95
2019-02-06T01:33:15.994Z,3.15
2019-02-06T01:34:41.529Z,3.40
2019-02-06T01:36:07.246Z,3.30
2019-02-06T01:37:32.761Z,3.20
2019-02-06T01:38:58.201Z,3.27
2019-02-06T01:40:23.946Z,3.35
2019-02-06T01:41:49.601Z,3.52
2019-02-06T01:43:15.104Z,3.52
2019-02-06T01:44:40.697Z,3.40
2019-02-06T01:46:06.465Z,4.25
2019-02-06T01:47:32.029Z,4.28
2019-02-06T01:48:57.536Z,3.50
2019-02-06T01:50:23.405Z,3.47
2019-02-06T01:51:49.040Z,3.58
2019-02-06T01:53:14.500Z,3.10
2019-02-06T01:54:40.087Z,2.85
2019-02-06T01:56:06.269Z,3.35
2019-02-06T01:57:31.739Z,2.50
2019-02-06T01:58:57.294Z,2.50
2019-02-06T02:00:24.272Z,3.10
2019-02-06T02:01:50.275Z,3.50
2019-02-06T02:03:15.940Z,2.75
2019-02-06T02:04:41.578Z,2.83
2019-02-06T02:06:07.277Z,2.10
2019-02-06T02:07:32.745Z,2.30
2019-02-06T02:09:01.908Z,2.35
2019-02-06T02:10:27.598Z,2.62
2019-02-06T02:11:53.309Z,2.35
2019-02-06T02:13:18.993Z,2.37
2019-02-06T02:14:44.590Z,2.12
2019-02-06T02:16:10.292Z,2.42
2019-02-06T02:17:35.817Z,2.95
2019-02-06T02:19:01.581Z,2.85
2019-02-06T02:20:27.179Z,3.47
2019-02-06T02:21:52.741Z,3.70
2019-02-06T02:23:18.465Z,3.40
2019-02-06T02:24:44.055Z,3.77
2019-02-06T02:26:09.671Z,3.55
2019-02-06T02:27:35.205Z,3.30
2019-02-06T02:29:00.924Z,3.65
2019-02-06T02:30:34.793Z,3.60
2019-02-06T02:32:00.447Z,2.87
2019-02-06T02:33:25.882Z,4.33
2019-02-06T02:34:51.328Z,3.37
2019-02-06T02:36:16.872Z,4.30
2019-02-06T02:37:42.566Z,3.85
2019-02-06T02:39:09.214Z,3.35
2019-02-06T02:40:34.764Z,3.42
2019-02-06T02:42:00.421Z,3.30
2019-02-06T02:43:25.989Z,2.80
2019-02-06T02:44:51.520Z,3.12
2019-02-06T02:46:17.115Z,2.45
2019-02-06T02:47:42.906Z,2.80
2019-02-06T02:49:08.487Z,2.40
2019-02-06T02:50:34.009Z,2.70
2019-02-06T02:51:59.522Z,2.33
2019-02-06T02:53:25.021Z,1.90
2019-02-06T02:54:50.477Z,2.02
2019-02-06T02:56:16.177Z,2.15
2019-02-06T02:57:42.105Z,1.80
2019-02-06T02:59:07.760Z,2.00
2019-02-06T03:00:55.337Z,2.20
2019-02-06T03:02:48.535Z,2.20
2019-02-06T03:04:24.189Z,2.40
2019-02-06T03:05:49.683Z,2.00
2019-02-06T03:07:15.294Z,2.40
2019-02-06T03:08:40.886Z,2.05
2019-02-06T03:10:07.503Z,2.80
2019-02-06T03:11:33.026Z,2.75
2019-02-06T03:12:58.500Z,2.92
2019-02-06T03:14:23.967Z,2.90
2019-02-06T03:15:49.571Z,3.00
2019-02-06T03:17:15.055Z,3.80
2019-02-06T03:18:40.741Z,3.50
2019-02-06T03:20:07.722Z,3.00
2019-02-06T03:21:33.247Z,3.60
2019-02-06T03:22:58.780Z,3.05
2019-02-06T03:24:24.298Z,2.98
2019-02-06T03:25:50.074Z,3.67
2019-02-06T03:27:15.586Z,3.40
2019-02-06T03:28:41.106Z,3.67
2019-02-06T03:30:08.887Z,3.30
2019-02-06T03:31:34.651Z,4.03
2019-02-06T03:33:00.221Z,3.40
2019-02-06T03:34:25.700Z,3.62
2019-02-06T03:35:51.184Z,3.20
2019-02-06T03:37:17.063Z,3.20
2019-02-06T03:38:42.543Z,3.02
2019-02-06T03:40:08.734Z,2.72
2019-02-06T03:41:34.222Z,3.37
2019-02-06T03:42:59.712Z,3.80
2019-02-06T03:44:25.326Z,2.50
2019-02-06T03:45:50.899Z,2.80
2019-02-06T03:47:16.369Z,2.77
2019-02-06T03:48:42.050Z,3.45
2019-02-06T03:50:09.916Z,2.70
2019-02-06T03:51:35.373Z,3.00
2019-02-06T03:53:00.997Z,2.92
2019-02-06T03:54:26.696Z,2.90
2019-02-06T03:55:52.203Z,2.60
2019-02-06T03:57:17.689Z,2.40
2019-02-06T03:58:43.412Z,2.95
2019-02-06T04:00:11.886Z,2.85
2019-02-06T04:01:37.371Z,3.00
2019-02-06T04:03:02.944Z,2.40
2019-02-06T04:04:28.447Z,2.60
2019-02-06T04:05:53.900Z,2.33
2019-02-06T04:07:19.667Z,2.10
2019-02-06T04:08:45.295Z,2.25
2019-02-06T04:10:12.633Z,2.55
2019-02-06T04:11:38.234Z,2.60
2019-02-06T04:13:04.099Z,2.30
2019-02-06T04:14:29.705Z,2.92
2019-02-06T04:15:55.281Z,2.00
2019-02-06T04:17:20.942Z,2.35
2019-02-06T04:18:46.845Z,2.30
2019-02-06T04:20:12.677Z,2.37
2019-02-06T04:21:38.220Z,2.50
2019-02-06T04:23:03.853Z,2.65
2019-02-06T04:24:29.798Z,3.20
2019-02-06T04:25:55.327Z,3.02
2019-02-06T04:27:20.842Z,2.65
2019-02-06T04:28:46.311Z,2.40
2019-02-06T04:30:12.842Z,3.05
2019-02-06T04:31:38.312Z,2.77
2019-02-06T04:33:03.762Z,2.90
2019-02-06T04:34:29.262Z,2.80
2019-02-06T04:35:54.722Z,2.15
2019-02-06T04:37:20.297Z,2.35
2019-02-06T04:38:45.878Z,2.45
2019-02-06T04:40:14.617Z,2.80
2019-02-06T04:41:40.158Z,2.62
2019-02-06T04:43:05.794Z,2.60
2019-02-06T04:44:31.259Z,1.87
2019-02-06T04:45:56.829Z,2.45
2019-02-06T04:47:22.365Z,2.15
2019-02-06T04:48:47.854Z,2.35
2019-02-06T04:50:13.982Z,2.58
2019-02-06T04:51:39.460Z,2.85
2019-02-06T04:53:05.328Z,3.10
2019-02-06T04:54:30.825Z,2.50
2019-02-06T04:55:56.307Z,2.40
2019-02-06T04:57:21.871Z,2.37
2019-02-06T04:58:47.484Z,3.00
2019-02-06T05:00:21.832Z,2.55
2019-02-06T05:01:47.495Z,2.70
2019-02-06T05:03:12.972Z,2.87
2019-02-06T05:04:38.690Z,3.00
2019-02-06T05:06:04.304Z,2.75
2019-02-06T05:07:29.908Z,2.90
2019-02-06T05:08:55.353Z,3.15
2019-02-06T05:10:21.020Z,2.80
2019-02-06T05:11:46.626Z,2.60
2019-02-06T05:13:12.101Z,2.95
2019-02-06T05:14:37.573Z,3.27
2019-02-06T05:16:03.074Z,4.20
2019-02-06T05:17:28.986Z,3.87
2019-02-06T05:18:54.457Z,3.33
2019-02-06T05:20:25.561Z,3.70
2019-02-06T05:21:51.095Z,3.60
2019-02-06T05:23:16.760Z,3.67
2019-02-06T05:24:42.294Z,2.80
2019-02-06T05:26:07.815Z,3.20
2019-02-06T05:27:33.499Z,3.27
2019-02-06T05:28:59.365Z,3.45
2019-02-06T05:30:24.949Z,3.50
2019-02-06T05:31:50.495Z,2.60
2019-02-06T05:33:15.966Z,3.50
2019-02-06T05:34:41.444Z,2.72
2019-02-06T05:36:07.162Z,2.70
2019-02-06T05:37:32.624Z,1.95
2019-02-06T05:38:58.189Z,2.00
2019-02-06T05:40:23.797Z,1.50
2019-02-06T05:41:49.314Z,2.45
2019-02-06T05:43:14.807Z,2.05
2019-02-06T05:44:40.334Z,1.95
2019-02-06T05:46:05.931Z,2.15
2019-02-06T05:47:31.442Z,1.52
2019-02-06T05:48:56.949Z,1.60
2019-02-06T05:50:22.562Z,1.57
2019-02-06T05:51:48.102Z,1.35
2019-02-06T05:53:13.886Z,1.77
2019-02-06T05:54:39.444Z,1.50
2019-02-06T05:56:05.165Z,1.20
2019-02-06T05:57:30.664Z,1.72
2019-02-06T05:58:56.117Z,1.72
2019-02-06T06:00:39.717Z,2.02
2019-02-06T06:02:05.577Z,2.10
2019-02-06T06:03:31.079Z,1.55
2019-02-06T06:04:56.545Z,1.60
2019-02-06T06:06:22.158Z,1.65
2019-02-06T06:07:47.650Z,1.72
2019-02-06T06:09:13.296Z,1.50
2019-02-06T06:10:38.761Z,1.60
2019-02-06T06:12:04.282Z,1.60
2019-02-06T06:13:29.757Z,1.60
2019-02-06T06:14:55.362Z,1.60
2019-02-06T06:16:21.274Z,1.92
2019-02-06T06:17:46.989Z,2.10
2019-02-06T06:19:12.440Z,1.37
2019-02-06T06:20:38.137Z,1.47
2019-02-06T06:22:04.149Z,1.17
2019-02-06T06:23:29.674Z,1.30
2019-02-06T06:24:55.164Z,1.70
2019-02-06T06:26:20.645Z,2.15
2019-02-06T06:27:46.332Z,1.70
2019-02-06T06:29:11.848Z,1.30
2019-02-06T06:30:37.332Z,2.22
2019-02-06T06:32:02.949Z,2.72
2019-02-06T06:33:28.457Z,1.40
2019-02-06T06:34:53.953Z,1.62
2019-02-06T06:36:19.440Z,1.30
2019-02-06T06:37:57.202Z,1.50
2019-02-06T06:39:12.620Z,1.87
2019-02-06T06:40:38.101Z,1.42
2019-02-06T06:42:03.619Z,1.70
2019-02-06T06:43:29.136Z,1.80
2019-02-06T06:44:54.633Z,1.52
2019-02-06T06:46:20.438Z,1.67
2019-02-06T06:47:46.032Z,1.20
2019-02-06T06:49:11.537Z,1.25
2019-02-06T06:50:38.004Z,1.37
2019-02-06T06:52:04.159Z,1.55
2019-02-06T06:53:29.722Z,1.98
2019-02-06T06:54:55.288Z,2.10
2019-02-06T06:56:20.889Z,2.20
2019-02-06T06:57:46.876Z,1.75
2019-02-06T06:59:12.414Z,1.70
2019-02-06T07:00:37.995Z,1.65
2019-02-06T07:02:03.456Z,1.60
2019-02-06T07:03:29.038Z,1.90
2019-02-06T07:04:54.501Z,2.00
2019-02-06T07:06:20.076Z,1.50
2019-02-06T07:07:45.770Z,1.60
2019-02-06T07:09:11.405Z,1.80
2019-02-06T07:10:37.019Z,2.30
2019-02-06T07:12:02.494Z,1.60
2019-02-06T07:13:28.042Z,1.85
2019-02-06T07:14:53.503Z,2.00
2019-02-06T07:16:19.001Z,2.90
2019-02-06T07:17:44.598Z,2.95
2019-02-06T07:19:10.092Z,1.95
2019-02-06T07:20:35.648Z,1.90
2019-02-06T07:22:01.207Z,1.70
2019-02-06T07:23:26.720Z,1.92
2019-02-06T07:24:52.259Z,2.12
2019-02-06T07:26:17.784Z,2.10
2019-02-06T07:27:43.555Z,2.00
2019-02-06T07:29:09.072Z,2.75
2019-02-06T07:30:36.133Z,1.92
2019-02-06T07:32:01.628Z,2.92
2019-02-06T07:33:27.388Z,1.90
2019-02-06T07:34:52.856Z,2.05
2019-02-06T07:36:18.365Z,1.92
2019-02-06T07:37:43.917Z,2.10
2019-02-06T07:39:10.231Z,2.40
2019-02-06T07:40:35.672Z,2.00
2019-02-06T07:42:01.185Z,3.10
2019-02-06T07:43:26.692Z,2.02
2019-02-06T07:44:52.166Z,2.02
2019-02-06T07:46:17.642Z,2.17
2019-02-06T07:47:43.249Z,2.77
2019-02-06T07:49:08.924Z,2.00
2019-02-06T07:50:35.381Z,2.40
2019-02-06T07:52:00.873Z,1.70
2019-02-06T07:53:26.425Z,2.80
2019-02-06T07:54:52.061Z,2.50
2019-02-06T07:56:17.547Z,3.02
2019-02-06T07:57:43.334Z,2.92
2019-02-06T07:59:08.995Z,3.00
2019-02-06T08:00:34.589Z,3.85
2019-02-06T08:02:00.197Z,3.17
2019-02-06T08:03:26.162Z,4.22
2019-02-06T08:04:51.712Z,3.60
2019-02-06T08:06:17.261Z,2.90
2019-02-06T08:07:42.928Z,4.00
2019-02-06T08:09:10.220Z,3.95
2019-02-06T08:10:36.351Z,3.85
2019-02-06T08:12:03.120Z,4.30
2019-02-06T08:13:28.741Z,3.87
2019-02-06T08:14:54.759Z,4.17
2019-02-06T08:16:20.357Z,3.80
2019-02-06T08:17:45.934Z,3.50
2019-02-06T08:19:11.626Z,2.80
2019-02-06T08:20:37.372Z,2.98
2019-02-06T08:22:02.833Z,2.87
2019-02-06T08:23:28.480Z,2.72
2019-02-06T08:24:53.961Z,2.45
2019-02-06T08:26:19.456Z,3.40
2019-02-06T08:27:45.072Z,3.85
2019-02-06T08:29:10.658Z,3.27
2019-02-06T08:30:38.580Z,3.00
2019-02-06T08:32:04.101Z,3.65
2019-02-06T08:33:29.624Z,6.87
2019-02-06T08:34:55.055Z,14.13
2019-02-06T08:36:20.774Z,13.78
2019-02-06T08:37:46.656Z,17.95
2019-02-06T08:39:12.365Z,9.68
2019-02-06T08:40:38.245Z,16.97
2019-02-06T08:42:03.740Z,29.60
2019-02-06T08:43:29.421Z,10.95
2019-02-06T08:44:55.009Z,9.35
2019-02-06T08:46:20.753Z,6.75
2019-02-06T08:47:46.654Z,7.00
2019-02-06T08:49:12.136Z,6.50
2019-02-06T08:50:37.943Z,6.30
2019-02-06T08:52:03.502Z,4.85
2019-02-06T08:53:29.002Z,4.95
2019-02-06T08:54:54.693Z,4.60
2019-02-06T08:56:20.829Z,3.90
2019-02-06T08:57:46.531Z,4.30
2019-02-06T08:59:12.177Z,6.55
2019-02-06T09:00:39.153Z,5.00
2019-02-06T09:02:05.354Z,4.70
2019-02-06T09:03:30.836Z,4.90
2019-02-06T09:04:56.430Z,5.20
2019-02-06T09:06:21.984Z,5.00
2019-02-06T09:07:47.593Z,6.53
2019-02-06T09:09:13.426Z,5.37
2019-02-06T09:10:38.989Z,6.10
2019-02-06T09:12:04.739Z,4.70
2019-02-06T09:13:30.346Z,4.25
2019-02-06T09:14:55.917Z,5.30
2019-02-06T09:16:21.481Z,5.20
2019-02-06T09:17:47.203Z,5.83
2019-02-06T09:19:12.884Z,4.90
2019-02-06T09:20:38.441Z,5.37
2019-02-06T09:22:04.206Z,5.62
2019-02-06T09:23:29.926Z,5.17
2019-02-06T09:24:55.585Z,5.72
2019-02-06T09:26:21.040Z,5.30
2019-02-06T09:27:46.681Z,5.55
2019-02-06T09:29:12.152Z,5.12
2019-02-06T09:30:37.942Z,5.37
2019-02-06T09:32:03.700Z,5.03
2019-02-06T09:33:29.240Z,4.62
2019-02-06T09:34:54.773Z,5.72
2019-02-06T09:36:20.209Z,5.05
2019-02-06T09:37:46.070Z,4.72
2019-02-06T09:39:12.506Z,5.55
2019-02-06T09:40:37.985Z,4.42
2019-02-06T09:42:03.557Z,5.47
2019-02-06T09:43:29.061Z,5.72
2019-02-06T09:44:54.677Z,5.60
2019-02-06T09:46:20.211Z,5.95
2019-02-06T09:47:45.902Z,6.60
2019-02-06T09:49:11.383Z,5.65
2019-02-06T09:50:38.294Z,5.65
2019-02-06T09:52:03.813Z,5.60
2019-02-06T09:53:29.528Z,5.58
2019-02-06T09:54:55.101Z,4.85
2019-02-06T09:56:20.638Z,4.83
2019-02-06T09:57:46.242Z,5.05
2019-02-06T09:59:11.729Z,5.37
2019-02-06T10:00:38.611Z,4.53
2019-02-06T10:02:04.449Z,3.10
2019-02-06T10:03:30.035Z,3.65
2019-02-06T10:04:55.529Z,3.70
2019-02-06T10:06:21.109Z,4.20
2019-02-06T10:07:47.046Z,4.30
2019-02-06T10:09:22.548Z,4.15
2019-02-06T10:10:39.851Z,3.02
2019-02-06T10:12:05.398Z,3.20
2019-02-06T10:13:31.199Z,3.65
2019-02-06T10:14:56.663Z,3.77
2019-02-06T10:16:22.269Z,3.22
2019-02-06T10:17:47.988Z,3.20
2019-02-06T10:19:13.984Z,3.20
2019-02-06T10:20:48.388Z,3.60
2019-02-06T10:22:13.885Z,3.00
2019-02-06T10:23:39.502Z,2.70
2019-02-06T10:25:05.496Z,3.72
2019-02-06T10:26:31.184Z,3.98
2019-02-06T10:27:56.767Z,3.77
2019-02-06T10:29:22.294Z,3.80
2019-02-06T10:30:50.214Z,3.37
2019-02-06T10:32:15.869Z,3.08
2019-02-06T10:33:41.497Z,3.52
2019-02-06T10:35:07.831Z,4.20
2019-02-06T10:36:33.643Z,4.10
2019-02-06T10:37:59.445Z,4.67
2019-02-06T10:39:34.190Z,3.75
2019-02-06T10:40:52.093Z,3.87
2019-02-06T10:42:18.095Z,4.40
2019-02-06T10:43:43.664Z,4.10
2019-02-06T10:45:10.253Z,4.50
2019-02-06T10:46:35.997Z,3.83
2019-02-06T10:48:01.891Z,5.08
2019-02-06T10:49:27.606Z,4.50
2019-02-06T10:50:54.312Z,4.75
2019-02-06T10:52:19.793Z,4.50
2019-02-06T10:53:45.798Z,3.70
2019-02-06T10:55:11.598Z,4.78
2019-02-06T10:56:37.272Z,4.78
2019-02-06T10:58:03.175Z,4.45
2019-02-06T10:59:28.697Z,3.98
2019-02-06T11:00:56.949Z,3.70
2019-02-06T11:02:22.455Z,4.87
2019-02-06T11:03:48.210Z,4.08
2019-02-06T11:05:13.933Z,4.62
2019-02-06T11:06:39.847Z,4.28
2019-02-06T11:08:06.213Z,4.53
2019-02-06T11:09:31.681Z,4.50
2019-02-06T11:10:57.323Z,4.20
2019-02-06T11:12:24.578Z,4.08
2019-02-06T11:13:50.043Z,3.87
2019-02-06T11:15:15.956Z,4.30
2019-02-06T11:16:41.495Z,4.20
2019-02-06T11:18:07.657Z,3.65
2019-02-06T11:19:33.285Z,3.72
2019-02-06T11:20:58.883Z,3.35
2019-02-06T11:22:24.498Z,3.50
2019-02-06T11:23:50.135Z,3.77
2019-02-06T11:25:16.128Z,2.95
2019-02-06T11:26:41.720Z,3.55
2019-02-06T11:28:08.169Z,3.50
2019-02-06T11:29:33.700Z,4.10
2019-02-06T11:30:59.236Z,4.17
2019-02-06T11:32:24.698Z,5.60
2019-02-06T11:33:50.306Z,4.08
2019-02-06T11:35:16.422Z,4.10
2019-02-06T11:36:42.050Z,4.28
2019-02-06T11:38:08.324Z,4.00
2019-02-06T11:39:33.873Z,3.30
2019-02-06T11:40:59.740Z,3.80
2019-02-06T11:42:25.313Z,4.15
2019-02-06T11:43:50.931Z,4.47
2019-02-06T11:45:19.080Z,4.72
2019-02-06T11:46:44.864Z,4.92
2019-02-06T11:48:10.628Z,4.30
2019-02-06T11:49:39.159Z,4.00
2019-02-06T11:51:04.954Z,5.42
2019-02-06T11:52:30.663Z,5.55
2019-02-06T11:53:58.080Z,4.78
2019-02-06T11:55:24.389Z,5.10
2019-02-06T11:56:49.893Z,5.10
2019-02-06T11:58:15.666Z,4.95
2019-02-06T11:59:41.156Z,4.75
2019-02-06T12:01:25.799Z,5.12
2019-02-06T12:02:51.777Z,4.55
2019-02-06T12:04:17.416Z,4.12
2019-02-06T12:05:42.892Z,4.40
2019-02-06T12:07:08.589Z,4.78
2019-02-06T12:08:34.658Z,4.75
2019-02-06T12:10:09.320Z,4.97
2019-02-06T12:11:27.606Z,4.85
2019-02-06T12:12:53.291Z,3.98
2019-02-06T12:14:19.277Z,3.92
2019-02-06T12:15:45.009Z,4.35
2019-02-06T12:17:10.626Z,5.33
2019-02-06T12:18:36.333Z,4.30
2019-02-06T12:20:05.305Z,4.65
2019-02-06T12:21:30.866Z,5.55
2019-02-06T12:22:56.352Z,6.28
2019-02-06T12:24:21.944Z,5.25
2019-02-06T12:25:47.669Z,4.95
2019-02-06T12:27:13.172Z,5.65
2019-02-06T12:28:38.936Z,5.10
2019-02-06T12:30:06.084Z,4.78
2019-02-06T12:31:31.847Z,4.70
2019-02-06T12:32:57.484Z,5.80
2019-02-06T12:34:22.937Z,4.72
2019-02-06T12:35:48.463Z,5.08
2019-02-06T12:37:14.441Z,5.10
2019-02-06T12:38:40.017Z,5.30
2019-02-06T12:40:06.073Z,5.20
2019-02-06T12:41:31.603Z,4.73
2019-02-06T12:42:57.155Z,4.53
2019-02-06T12:44:22.636Z,4.28
2019-02-06T12:45:48.253Z,4.00
2019-02-06T12:47:13.793Z,4.23
2019-02-06T12:48:39.378Z,4.60
2019-02-06T12:50:05.457Z,4.10
2019-02-06T12:51:31.157Z,3.90
2019-02-06T12:52:57.533Z,4.57
2019-02-06T12:54:23.166Z,4.05
2019-02-06T12:55:48.760Z,4.40
2019-02-06T12:57:14.595Z,3.60
2019-02-06T12:58:40.216Z,3.90
2019-02-06T13:00:09.759Z,4.08
2019-02-06T13:01:35.351Z,4.08
2019-02-06T13:03:01.281Z,3.95
2019-02-06T13:04:26.737Z,4.05
2019-02-06T13:05:52.232Z,3.92
2019-02-06T13:07:17.755Z,3.92
2019-02-06T13:08:43.664Z,4.10
2019-02-06T13:10:09.632Z,4.50
2019-02-06T13:11:35.146Z,4.43
2019-02-06T13:13:00.910Z,4.17
2019-02-06T13:14:26.422Z,4.58
2019-02-06T13:15:52.024Z,3.77
2019-02-06T13:17:17.722Z,4.67
2019-02-06T13:18:43.193Z,3.62
2019-02-06T13:20:14.724Z,3.97
2019-02-06T13:21:40.220Z,4.30
2019-02-06T13:23:06.346Z,3.67
2019-02-06T13:24:31.844Z,4.05
2019-02-06T13:25:57.485Z,3.75
2019-02-06T13:27:23.158Z,4.00
2019-02-06T13:28:48.702Z,4.00
2019-02-06T13:30:29.426Z,3.80
2019-02-06T13:31:54.954Z,4.17
2019-02-06T13:33:20.539Z,3.35
2019-02-06T13:34:46.149Z,3.67
2019-02-06T13:36:12.389Z,2.95
2019-02-06T13:37:38.088Z,3.27
2019-02-06T13:39:04.375Z,3.10
2019-02-06T13:40:30.246Z,3.72
2019-02-06T13:41:55.808Z,3.80
2019-02-06T13:43:21.361Z,3.00
2019-02-06T13:44:46.813Z,2.52
2019-02-06T13:46:12.388Z,2.90
2019-02-06T13:47:38.125Z,3.00
2019-02-06T13:49:04.230Z,3.15
2019-02-06T13:50:30.699Z,3.58
2019-02-06T13:51:56.253Z,2.92
2019-02-06T13:53:21.945Z,2.55
2019-02-06T13:54:47.750Z,3.00
2019-02-06T13:56:13.273Z,2.80
2019-02-06T13:57:38.965Z,2.98
2019-02-06T13:59:07.304Z,2.47
2019-02-06T14:00:33.761Z,2.65
2019-02-06T14:01:59.398Z,3.08
2019-02-06T14:03:25.088Z,2.40
2019-02-06T14:04:50.710Z,3.10
2019-02-06T14:06:16.755Z,2.52
2019-02-06T14:07:42.423Z,3.10
2019-02-06T14:09:22.189Z,3.30
2019-02-06T14:10:39.613Z,2.30
2019-02-06T14:12:05.308Z,2.85
2019-02-06T14:13:30.937Z,2.60
2019-02-06T14:14:59.395Z,2.52
2019-02-06T14:16:27.054Z,2.62
2019-02-06T14:17:52.166Z,2.65
2019-02-06T14:19:17.695Z,3.15
2019-02-06T14:20:43.428Z,3.00
2019-02-06T14:22:12.003Z,2.67
2019-02-06T14:24:08.240Z,3.15
2019-02-06T14:26:00.127Z,2.47
2019-02-06T14:27:48.380Z,2.72
2019-02-06T14:29:31.332Z,3.12
2019-02-06T14:31:32.026Z,2.70
2019-02-06T14:33:10.861Z,2.95
2019-02-06T14:34:53.834Z,3.27
2019-02-06T14:37:03.367Z,3.30
2019-02-06T14:39:19.986Z,3.37
2019-02-06T14:41:34.519Z,3.37
2019-02-06T14:43:36.501Z,2.98
2019-02-06T14:45:52.125Z,2.75
2019-02-06T14:47:57.785Z,2.80
2019-02-06T14:49:48.149Z,2.98
2019-02-06T14:51:36.602Z,2.62
2019-02-06T14:53:43.038Z,2.67
2019-02-06T14:55:36.251Z,3.27
2019-02-06T14:57:15.184Z,3.42
2019-02-06T14:59:36.853Z,3.35
2019-02-06T15:01:36.634Z,3.80
2019-02-06T15:03:45.845Z,3.65
2019-02-06T15:05:57.883Z,2.87
2019-02-06T15:07:53.396Z,3.33
2019-02-06T15:09:54.208Z,3.30
2019-02-06T15:11:58.313Z,3.35
2019-02-06T15:14:07.521Z,3.70
2019-02-06T15:15:58.114Z,3.05
2019-02-06T15:17:45.170Z,3.00
2019-02-06T15:19:36.030Z,2.65
2019-02-06T15:21:11.405Z,3.08
2019-02-06T15:23:13.112Z,2.72
2019-02-06T15:24:55.683Z,3.10
2019-02-06T15:27:01.919Z,3.15
2019-02-06T15:28:49.822Z,2.55
2019-02-06T15:31:10.696Z,2.67
2019-02-06T15:33:47.095Z,2.45
2019-02-06T15:35:38.551Z,2.92
2019-02-06T15:37:35.310Z,2.90
2019-02-06T15:39:47.642Z,3.00
2019-02-06T15:41:33.069Z,2.70
2019-02-06T15:43:38.680Z,3.10
2019-02-06T15:45:21.794Z,2.80
2019-02-06T15:46:59.608Z,2.80
2019-02-06T15:48:45.091Z,3.33
2019-02-06T15:50:45.469Z,3.00
2019-02-06T15:52:30.882Z,2.65
2019-02-06T15:54:28.462Z,3.83
2019-02-06T15:56:52.863Z,3.40
2019-02-06T15:58:49.617Z,2.80
2019-02-06T16:00:39.338Z,3.47
2019-02-06T16:02:26.433Z,2.90
2019-02-06T16:04:59.287Z,2.95
2019-02-06T16:06:46.668Z,3.08
2019-02-06T16:08:40.578Z,3.22
2019-02-06T16:10:39.888Z,2.95
2019-02-06T16:12:27.913Z,3.08
2019-02-06T16:14:41.619Z,3.00
2019-02-06T16:16:40.802Z,3.05
2019-02-06T16:18:26.975Z,3.08
2019-02-06T16:20:23.705Z,3.20
2019-02-06T16:22:22.932Z,3.20
2019-02-06T16:24:14.477Z,2.85
2019-02-06T16:25:52.214Z,3.05
2019-02-06T16:27:44.014Z,3.02
2019-02-06T16:29:31.330Z,3.27
2019-02-06T16:31:39.393Z,3.37
2019-02-06T16:33:28.820Z,2.35
2019-02-06T16:35:27.403Z,2.87
2019-02-06T16:37:22.050Z,3.40
2019-02-06T16:38:59.362Z,3.42
2019-02-06T16:41:17.452Z,3.10
2019-02-06T16:43:20.269Z,3.20
2019-02-06T16:45:08.646Z,3.10
2019-02-06T16:46:59.424Z,2.90
2019-02-06T16:48:50.330Z,3.33
2019-02-06T16:50:52.301Z,3.72
2019-02-06T16:52:37.914Z,2.80
2019-02-06T16:55:02.121Z,3.20
2019-02-06T16:56:56.307Z,3.52
2019-02-06T16:59:02.704Z,3.55
2019-02-06T17:00:49.740Z,3.50
2019-02-06T17:02:50.497Z,3.10
2019-02-06T17:04:55.502Z,4.25
2019-02-06T17:06:48.830Z,3.55
2019-02-06T17:08:53.680Z,3.22
2019-02-06T17:10:57.951Z,3.42
2019-02-06T17:12:55.011Z,3.75
2019-02-06T17:14:53.493Z,3.65
2019-02-06T17:17:18.444Z,3.35
2019-02-06T17:19:13.915Z,4.05
2019-02-06T17:21:22.882Z,3.35
2019-02-06T17:23:20.138Z,3.75
2019-02-06T17:25:15.468Z,3.20
2019-02-06T17:27:04.983Z,3.75
2019-02-06T17:28:57.926Z,2.75
2019-02-06T17:30:52.364Z,3.00
2019-02-06T17:33:25.439Z,3.40
2019-02-06T17:35:46.632Z,3.12
2019-02-06T17:37:56.609Z,2.98
2019-02-06T17:40:02.020Z,3.83
2019-02-06T17:41:42.723Z,4.10
2019-02-06T17:43:26.707Z,3.85
2019-02-06T17:45:23.305Z,3.40
2019-02-06T17:47:10.540Z,3.35
2019-02-06T17:49:14.813Z,3.12
2019-02-06T17:51:11.889Z,3.87
2019-02-06T17:53:05.622Z,3.37
2019-02-06T17:54:54.425Z,3.95
2019-02-06T17:56:20.242Z,3.33
2019-02-06T17:57:46.319Z,3.80
2019-02-06T17:59:12.013Z,4.28
2019-02-06T18:00:47.181Z,4.10
2019-02-06T18:02:12.865Z,3.75
2019-02-06T18:03:56.565Z,4.37
2019-02-06T18:05:22.156Z,4.85
2019-02-06T18:06:47.751Z,5.12
2019-02-06T18:08:13.590Z,4.75
2019-02-06T18:09:39.492Z,5.15
2019-02-06T18:11:05.288Z,4.60
2019-02-06T18:12:30.880Z,5.10
2019-02-06T18:13:58.834Z,4.40
2019-02-06T18:15:24.538Z,4.25
2019-02-06T18:16:50.254Z,4.17
2019-02-06T18:18:15.856Z,5.15
2019-02-06T18:19:42.179Z,4.60
2019-02-06T18:21:07.817Z,4.40
2019-02-06T18:22:33.301Z,4.95
2019-02-06T18:23:58.752Z,4.55
2019-02-06T18:25:24.697Z,4.10
2019-02-06T18:26:50.442Z,4.05
2019-02-06T18:28:16.961Z,4.72
2019-02-06T18:29:42.556Z,4.17
2019-02-06T18:31:08.242Z,3.77
2019-02-06T18:32:33.942Z,4.08
2019-02-06T18:33:59.690Z,4.37
2019-02-06T18:35:25.311Z,4.30
2019-02-06T18:36:50.800Z,4.65
2019-02-06T18:38:16.697Z,4.83
2019-02-06T18:39:42.248Z,4.65
2019-02-06T18:41:07.837Z,5.05
2019-02-06T18:42:37.202Z,4.65
2019-02-06T18:44:02.173Z,4.83
2019-02-06T18:45:28.046Z,5.22
2019-02-06T18:46:55.961Z,5.12
2019-02-06T18:48:24.205Z,4.85
2019-02-06T18:49:50.421Z,5.60
2019-02-06T18:51:16.041Z,4.90
2019-02-06T18:52:41.650Z,4.50
2019-02-06T18:54:09.770Z,5.22
2019-02-06T18:55:35.544Z,5.42
2019-02-06T18:57:01.000Z,4.80
2019-02-06T18:58:27.601Z,5.67
2019-02-06T18:59:53.413Z,5.45
2019-02-06T19:01:18.978Z,8.43
2019-02-06T19:02:44.998Z,24.15
2019-02-06T19:04:14.365Z,19.45
2019-02-06T19:05:39.979Z,15.63
2019-02-06T19:07:05.660Z,12.63
2019-02-06T19:08:31.160Z,9.80
2019-02-06T19:09:56.992Z,10.43
2019-02-06T19:11:24.537Z,9.20
2019-02-06T19:12:50.809Z,8.03
2019-02-06T19:14:16.714Z,9.18
2019-02-06T19:15:42.177Z,8.93
2019-02-06T19:17:08.028Z,11.70
2019-02-06T19:18:33.556Z,11.95
2019-02-06T19:19:59.115Z,11.53
2019-02-06T19:21:24.994Z,10.55
2019-02-06T19:22:50.510Z,10.15
2019-02-06T19:24:17.759Z,11.05
2019-02-06T19:25:43.478Z,11.60
2019-02-06T19:27:09.271Z,10.03
2019-02-06T19:28:34.843Z,11.38
2019-02-06T19:30:00.360Z,10.90
2019-02-06T19:31:25.912Z,10.10
2019-02-06T19:32:51.701Z,8.85
2019-02-06T19:34:17.293Z,9.48
2019-02-06T19:35:42.909Z,9.38
2019-02-06T19:37:08.412Z,7.35
2019-02-06T19:38:33.905Z,8.50
2019-02-06T19:39:59.706Z,7.53
2019-02-06T19:41:25.176Z,8.08
2019-02-06T19:43:00.174Z,7.30
2019-02-06T19:44:17.894Z,6.85
2019-02-06T19:45:44.005Z,7.75
2019-02-06T19:47:09.508Z,7.10
2019-02-06T19:48:35.075Z,6.60
2019-02-06T19:50:00.711Z,7.30
2019-02-06T19:51:26.429Z,7.72
2019-02-06T19:52:54.770Z,7.28
2019-02-06T19:54:20.282Z,7.53
2019-02-06T19:55:46.005Z,6.50
2019-02-06T19:57:11.577Z,6.85
2019-02-06T19:58:40.992Z,5.85
2019-02-06T20:00:09.907Z,6.53
2019-02-06T20:01:37.619Z,5.83
2019-02-06T20:03:03.234Z,5.87